sensor_id;sensor_type;location;lat;lon;timestamp;P1;durP1;ratioP1;P2;durP2;ratioP2
28427;SDS011;15662;49.128;8.520;2022-12-18T00:00:03;65.63;;;30.52;;
28427;SDS011;15662;49.128;8.520;2022-12-18T00:02:39;65.47;;;28.85;;
28427;SDS011;15662;49.128;8.520;2022-12-18T00:05:07;66.82;;;30.15;;
28427;SDS011;15662;49.128;8.520;2022-12-18T00:07:35;65.85;;;30.30;;
28427;SDS011;15662;49.128;8.520;2022-12-18T00:10:03;68.20;;;30.10;;
28427;SDS011;15662;49.128;8.520;2022-12-18T00:12:32;61.97;;;30.00;;
28427;SDS011;15662;49.128;8.520;2022-12-18T00:15:00;66.85;;;29.35;;
28427;SDS011;15662;49.128;8.520;2022-12-18T00:17:27;60.85;;;29.38;;
28427;SDS011;15662;49.128;8.520;2022-12-18T00:19:55;57.30;;;29.00;;
28427;SDS011;15662;49.128;8.520;2022-12-18T00:22:23;61.80;;;29.35;;
28427;SDS011;15662;49.128;8.520;2022-12-18T00:24:51;61.50;;;29.10;;
28427;SDS011;15662;49.128;8.520;2022-12-18T00:27:19;63.80;;;30.38;;
28427;SDS011;15662;49.128;8.520;2022-12-18T00:29:47;64.90;;;28.67;;
28427;SDS011;15662;49.128;8.520;2022-12-18T00:32:16;65.28;;;29.25;;
28427;SDS011;15662;49.128;8.520;2022-12-18T00:34:43;62.88;;;29.10;;
28427;SDS011;15662;49.128;8.520;2022-12-18T00:37:12;61.25;;;29.20;;
28427;SDS011;15662;49.128;8.520;2022-12-18T00:39:50;57.55;;;28.17;;
28427;SDS011;15662;49.128;8.520;2022-12-18T00:42:19;58.70;;;28.30;;
28427;SDS011;15662;49.128;8.520;2022-12-18T00:45:06;58.78;;;28.48;;
28427;SDS011;15662;49.128;8.520;2022-12-18T00:47:39;62.80;;;28.90;;
28427;SDS011;15662;49.128;8.520;2022-12-18T00:50:08;62.72;;;29.52;;
28427;SDS011;15662;49.128;8.520;2022-12-18T00:52:39;107.03;;;30.90;;
28427;SDS011;15662;49.128;8.520;2022-12-18T00:57:36;59.35;;;27.20;;
28427;SDS011;15662;49.128;8.520;2022-12-18T01:00:05;60.90;;;28.67;;
28427;SDS011;15662;49.128;8.520;2022-12-18T01:02:39;59.08;;;28.30;;
28427;SDS011;15662;49.128;8.520;2022-12-18T01:05:10;65.45;;;29.13;;
28427;SDS011;15662;49.128;8.520;2022-12-18T01:07:39;62.75;;;29.58;;
28427;SDS011;15662;49.128;8.520;2022-12-18T01:10:08;57.00;;;28.27;;
28427;SDS011;15662;49.128;8.520;2022-12-18T01:12:38;56.55;;;27.50;;
28427;SDS011;15662;49.128;8.520;2022-12-18T01:15:07;64.82;;;27.60;;
28427;SDS011;15662;49.128;8.520;2022-12-18T01:17:37;61.63;;;28.40;;
28427;SDS011;15662;49.128;8.520;2022-12-18T01:20:05;61.55;;;28.10;;
28427;SDS011;15662;49.128;8.520;2022-12-18T01:22:34;61.90;;;28.80;;
28427;SDS011;15662;49.128;8.520;2022-12-18T01:25:03;62.55;;;28.88;;
28427;SDS011;15662;49.128;8.520;2022-12-18T01:27:33;61.03;;;27.27;;
28427;SDS011;15662;49.128;8.520;2022-12-18T01:30:03;57.50;;;27.67;;
28427;SDS011;15662;49.128;8.520;2022-12-18T01:32:32;59.50;;;27.60;;
28427;SDS011;15662;49.128;8.520;2022-12-18T01:35:01;57.30;;;26.70;;
28427;SDS011;15662;49.128;8.520;2022-12-18T01:37:29;64.53;;;27.98;;
28427;SDS011;15662;49.128;8.520;2022-12-18T01:39:57;64.78;;;29.33;;
28427;SDS011;15662;49.128;8.520;2022-12-18T01:42:26;64.82;;;28.65;;
28427;SDS011;15662;49.128;8.520;2022-12-18T01:55:42;59.92;;;28.23;;
28427;SDS011;15662;49.128;8.520;2022-12-18T01:58:14;69.50;;;30.13;;
28427;SDS011;15662;49.128;8.520;2022-12-18T02:00:43;63.05;;;28.90;;
28427;SDS011;15662;49.128;8.520;2022-12-18T02:03:12;61.00;;;30.00;;
28427;SDS011;15662;49.128;8.520;2022-12-18T02:05:44;60.05;;;29.13;;
28427;SDS011;15662;49.128;8.520;2022-12-18T02:08:44;65.50;;;29.23;;
28427;SDS011;15662;49.128;8.520;2022-12-18T02:11:53;62.60;;;29.17;;
28427;SDS011;15662;49.128;8.520;2022-12-18T02:14:44;64.03;;;29.35;;
28427;SDS011;15662;49.128;8.520;2022-12-18T02:17:23;59.42;;;28.52;;
28427;SDS011;15662;49.128;8.520;2022-12-18T02:29:05;65.03;;;30.85;;
28427;SDS011;15662;49.128;8.520;2022-12-18T02:31:55;65.13;;;30.63;;
28427;SDS011;15662;49.128;8.520;2022-12-18T02:34:28;63.47;;;30.17;;
28427;SDS011;15662;49.128;8.520;2022-12-18T02:37:01;64.40;;;30.80;;
28427;SDS011;15662;49.128;8.520;2022-12-18T02:39:34;60.50;;;29.42;;
28427;SDS011;15662;49.128;8.520;2022-12-18T02:42:05;66.20;;;30.88;;
28427;SDS011;15662;49.128;8.520;2022-12-18T02:44:43;59.38;;;28.95;;
28427;SDS011;15662;49.128;8.520;2022-12-18T02:47:18;60.35;;;30.17;;
28427;SDS011;15662;49.128;8.520;2022-12-18T02:58:25;61.58;;;30.13;;
28427;SDS011;15662;49.128;8.520;2022-12-18T03:04:38;62.33;;;28.00;;
28427;SDS011;15662;49.128;8.520;2022-12-18T03:10:29;63.05;;;29.45;;
28427;SDS011;15662;49.128;8.520;2022-12-18T03:13:04;58.35;;;28.50;;
28427;SDS011;15662;49.128;8.520;2022-12-18T03:15:38;57.50;;;28.75;;
28427;SDS011;15662;49.128;8.520;2022-12-18T03:18:21;61.05;;;29.45;;
28427;SDS011;15662;49.128;8.520;2022-12-18T03:20:57;54.53;;;27.75;;
28427;SDS011;15662;49.128;8.520;2022-12-18T03:23:31;59.03;;;29.30;;
28427;SDS011;15662;49.128;8.520;2022-12-18T03:26:09;60.58;;;29.77;;
28427;SDS011;15662;49.128;8.520;2022-12-18T03:28:46;59.25;;;29.63;;
28427;SDS011;15662;49.128;8.520;2022-12-18T03:31:22;56.45;;;29.63;;
28427;SDS011;15662;49.128;8.520;2022-12-18T03:33:54;59.03;;;29.50;;
28427;SDS011;15662;49.128;8.520;2022-12-18T03:36:37;55.88;;;28.50;;
28427;SDS011;15662;49.128;8.520;2022-12-18T03:39:05;54.58;;;27.92;;
28427;SDS011;15662;49.128;8.520;2022-12-18T03:44:42;59.25;;;29.67;;
28427;SDS011;15662;49.128;8.520;2022-12-18T03:47:25;54.28;;;27.90;;
28427;SDS011;15662;49.128;8.520;2022-12-18T03:50:15;57.67;;;29.75;;
28427;SDS011;15662;49.128;8.520;2022-12-18T03:52:57;52.75;;;28.33;;
28427;SDS011;15662;49.128;8.520;2022-12-18T03:55:49;54.63;;;27.83;;
28427;SDS011;15662;49.128;8.520;2022-12-18T03:58:20;40.10;;;21.55;;
28427;SDS011;15662;49.128;8.520;2022-12-18T04:01:12;56.28;;;29.00;;
28427;SDS011;15662;49.128;8.520;2022-12-18T04:03:42;57.50;;;28.65;;
28427;SDS011;15662;49.128;8.520;2022-12-18T04:06:13;53.15;;;29.05;;
28427;SDS011;15662;49.128;8.520;2022-12-18T04:08:43;53.40;;;28.85;;
28427;SDS011;15662;49.128;8.520;2022-12-18T04:11:15;57.63;;;29.00;;
28427;SDS011;15662;49.128;8.520;2022-12-18T04:13:45;58.90;;;29.05;;
28427;SDS011;15662;49.128;8.520;2022-12-18T04:16:22;55.95;;;28.58;;
28427;SDS011;15662;49.128;8.520;2022-12-18T04:18:54;55.78;;;29.58;;
28427;SDS011;15662;49.128;8.520;2022-12-18T04:21:24;51.55;;;26.60;;
28427;SDS011;15662;49.128;8.520;2022-12-18T04:23:52;54.13;;;29.17;;
28427;SDS011;15662;49.128;8.520;2022-12-18T04:26:22;60.50;;;30.50;;
28427;SDS011;15662;49.128;8.520;2022-12-18T04:29:13;55.08;;;29.10;;
28427;SDS011;15662;49.128;8.520;2022-12-18T04:31:41;57.13;;;28.92;;
28427;SDS011;15662;49.128;8.520;2022-12-18T04:34:09;59.03;;;29.30;;
28427;SDS011;15662;49.128;8.520;2022-12-18T04:36:42;55.63;;;29.60;;
28427;SDS011;15662;49.128;8.520;2022-12-18T04:39:10;60.65;;;30.50;;
28427;SDS011;15662;49.128;8.520;2022-12-18T04:41:57;57.05;;;29.75;;
28427;SDS011;15662;49.128;8.520;2022-12-18T04:44:25;56.40;;;29.25;;
28427;SDS011;15662;49.128;8.520;2022-12-18T04:46:53;55.08;;;28.50;;
28427;SDS011;15662;49.128;8.520;2022-12-18T04:49:23;57.53;;;28.75;;
28427;SDS011;15662;49.128;8.520;2022-12-18T04:51:51;55.25;;;29.00;;
28427;SDS011;15662;49.128;8.520;2022-12-18T04:54:20;52.13;;;27.80;;
28427;SDS011;15662;49.128;8.520;2022-12-18T04:56:47;53.00;;;27.65;;
28427;SDS011;15662;49.128;8.520;2022-12-18T04:59:15;55.70;;;28.55;;
28427;SDS011;15662;49.128;8.520;2022-12-18T05:01:43;55.78;;;27.67;;
28427;SDS011;15662;49.128;8.520;2022-12-18T05:04:12;51.50;;;27.25;;
28427;SDS011;15662;49.128;8.520;2022-12-18T05:06:40;48.70;;;25.35;;
28427;SDS011;15662;49.128;8.520;2022-12-18T05:09:08;53.65;;;27.20;;
28427;SDS011;15662;49.128;8.520;2022-12-18T05:11:36;49.67;;;26.40;;
28427;SDS011;15662;49.128;8.520;2022-12-18T05:14:03;54.50;;;27.45;;
28427;SDS011;15662;49.128;8.520;2022-12-18T05:16:31;55.40;;;27.17;;
28427;SDS011;15662;49.128;8.520;2022-12-18T05:18:59;54.92;;;26.60;;
28427;SDS011;15662;49.128;8.520;2022-12-18T05:21:27;53.00;;;27.15;;
28427;SDS011;15662;49.128;8.520;2022-12-18T05:23:55;50.70;;;26.55;;
28427;SDS011;15662;49.128;8.520;2022-12-18T05:26:22;52.88;;;27.35;;
28427;SDS011;15662;49.128;8.520;2022-12-18T05:28:50;51.60;;;26.55;;
28427;SDS011;15662;49.128;8.520;2022-12-18T05:31:18;52.35;;;27.58;;
28427;SDS011;15662;49.128;8.520;2022-12-18T05:33:46;51.80;;;26.40;;
28427;SDS011;15662;49.128;8.520;2022-12-18T05:36:16;49.65;;;25.83;;
28427;SDS011;15662;49.128;8.520;2022-12-18T05:38:44;51.92;;;26.70;;
28427;SDS011;15662;49.128;8.520;2022-12-18T05:41:12;53.97;;;27.83;;
28427;SDS011;15662;49.128;8.520;2022-12-18T05:43:40;52.45;;;26.77;;
28427;SDS011;15662;49.128;8.520;2022-12-18T05:46:11;50.53;;;26.90;;
28427;SDS011;15662;49.128;8.520;2022-12-18T05:48:44;51.05;;;27.95;;
28427;SDS011;15662;49.128;8.520;2022-12-18T05:51:15;53.42;;;28.27;;
28427;SDS011;15662;49.128;8.520;2022-12-18T05:53:44;59.30;;;28.75;;
28427;SDS011;15662;49.128;8.520;2022-12-18T05:56:17;57.38;;;27.83;;
28427;SDS011;15662;49.128;8.520;2022-12-18T05:58:50;61.75;;;28.73;;
28427;SDS011;15662;49.128;8.520;2022-12-18T06:01:21;59.58;;;29.48;;
28427;SDS011;15662;49.128;8.520;2022-12-18T06:03:53;60.97;;;29.60;;
28427;SDS011;15662;49.128;8.520;2022-12-18T06:06:23;61.03;;;28.87;;
28427;SDS011;15662;49.128;8.520;2022-12-18T06:08:54;60.30;;;28.70;;
28427;SDS011;15662;49.128;8.520;2022-12-18T06:11:24;59.00;;;29.05;;
28427;SDS011;15662;49.128;8.520;2022-12-18T06:13:54;61.25;;;29.45;;
28427;SDS011;15662;49.128;8.520;2022-12-18T06:16:25;61.72;;;29.60;;
28427;SDS011;15662;49.128;8.520;2022-12-18T06:18:57;59.75;;;29.08;;
28427;SDS011;15662;49.128;8.520;2022-12-18T06:21:26;65.57;;;29.60;;
28427;SDS011;15662;49.128;8.520;2022-12-18T06:23:55;59.80;;;27.60;;
28427;SDS011;15662;49.128;8.520;2022-12-18T06:26:23;61.33;;;28.17;;
28427;SDS011;15662;49.128;8.520;2022-12-18T06:28:54;61.80;;;28.95;;
28427;SDS011;15662;49.128;8.520;2022-12-18T06:31:22;67.95;;;29.80;;
28427;SDS011;15662;49.128;8.520;2022-12-18T06:33:50;60.58;;;28.48;;
28427;SDS011;15662;49.128;8.520;2022-12-18T06:36:17;61.15;;;29.48;;
28427;SDS011;15662;49.128;8.520;2022-12-18T06:38:46;59.92;;;29.20;;
28427;SDS011;15662;49.128;8.520;2022-12-18T06:41:15;66.72;;;29.60;;
28427;SDS011;15662;49.128;8.520;2022-12-18T06:43:45;66.47;;;30.15;;
28427;SDS011;15662;49.128;8.520;2022-12-18T06:46:13;65.47;;;30.08;;
28427;SDS011;15662;49.128;8.520;2022-12-18T06:48:41;68.63;;;30.48;;
28427;SDS011;15662;49.128;8.520;2022-12-18T06:51:10;73.40;;;31.95;;
28427;SDS011;15662;49.128;8.520;2022-12-18T06:53:37;70.15;;;30.48;;
28427;SDS011;15662;49.128;8.520;2022-12-18T06:56:06;66.00;;;29.02;;
28427;SDS011;15662;49.128;8.520;2022-12-18T06:58:37;70.15;;;30.15;;
28427;SDS011;15662;49.128;8.520;2022-12-18T07:01:06;70.05;;;30.45;;
28427;SDS011;15662;49.128;8.520;2022-12-18T07:03:40;72.32;;;30.58;;
28427;SDS011;15662;49.128;8.520;2022-12-18T07:06:17;69.72;;;29.75;;
28427;SDS011;15662;49.128;8.520;2022-12-18T07:08:47;72.88;;;30.23;;
28427;SDS011;15662;49.128;8.520;2022-12-18T07:11:15;69.60;;;30.42;;
28427;SDS011;15662;49.128;8.520;2022-12-18T07:13:45;67.05;;;30.65;;
28427;SDS011;15662;49.128;8.520;2022-12-18T07:16:14;72.25;;;29.80;;
28427;SDS011;15662;49.128;8.520;2022-12-18T07:18:51;75.15;;;30.75;;
28427;SDS011;15662;49.128;8.520;2022-12-18T07:21:21;75.43;;;31.83;;
28427;SDS011;15662;49.128;8.520;2022-12-18T07:23:50;85.97;;;34.13;;
28427;SDS011;15662;49.128;8.520;2022-12-18T07:26:19;83.00;;;33.25;;
28427;SDS011;15662;49.128;8.520;2022-12-18T07:28:48;85.13;;;32.50;;
28427;SDS011;15662;49.128;8.520;2022-12-18T07:31:18;77.70;;;31.50;;
28427;SDS011;15662;49.128;8.520;2022-12-18T07:33:48;75.97;;;32.25;;
28427;SDS011;15662;49.128;8.520;2022-12-18T07:36:18;84.80;;;33.45;;
28427;SDS011;15662;49.128;8.520;2022-12-18T07:38:47;83.28;;;31.83;;
28427;SDS011;15662;49.128;8.520;2022-12-18T07:41:16;80.80;;;32.53;;
28427;SDS011;15662;49.128;8.520;2022-12-18T07:43:46;79.03;;;33.85;;
28427;SDS011;15662;49.128;8.520;2022-12-18T07:46:14;80.15;;;33.17;;
28427;SDS011;15662;49.128;8.520;2022-12-18T07:48:43;90.65;;;32.97;;
28427;SDS011;15662;49.128;8.520;2022-12-18T07:51:16;80.13;;;32.60;;
28427;SDS011;15662;49.128;8.520;2022-12-18T07:53:45;74.85;;;32.33;;
28427;SDS011;15662;49.128;8.520;2022-12-18T07:56:18;86.18;;;32.28;;
28427;SDS011;15662;49.128;8.520;2022-12-18T07:58:56;77.53;;;33.13;;
28427;SDS011;15662;49.128;8.520;2022-12-18T08:01:25;90.07;;;33.83;;
28427;SDS011;15662;49.128;8.520;2022-12-18T08:03:53;79.78;;;33.20;;
28427;SDS011;15662;49.128;8.520;2022-12-18T08:06:21;80.25;;;32.42;;
28427;SDS011;15662;49.128;8.520;2022-12-18T08:08:53;84.65;;;34.33;;
28427;SDS011;15662;49.128;8.520;2022-12-18T08:11:23;88.90;;;34.75;;
28427;SDS011;15662;49.128;8.520;2022-12-18T08:13:55;85.35;;;33.75;;
28427;SDS011;15662;49.128;8.520;2022-12-18T08:16:24;95.10;;;38.53;;
28427;SDS011;15662;49.128;8.520;2022-12-18T08:18:53;91.22;;;39.58;;
28427;SDS011;15662;49.128;8.520;2022-12-18T08:21:25;97.18;;;39.50;;
28427;SDS011;15662;49.128;8.520;2022-12-18T08:23:59;127.95;;;50.20;;
28427;SDS011;15662;49.128;8.520;2022-12-18T08:26:29;82.93;;;34.70;;
28427;SDS011;15662;49.128;8.520;2022-12-18T08:28:58;80.72;;;34.28;;
28427;SDS011;15662;49.128;8.520;2022-12-18T08:31:28;89.13;;;37.30;;
28427;SDS011;15662;49.128;8.520;2022-12-18T08:33:57;79.90;;;35.47;;
28427;SDS011;15662;49.128;8.520;2022-12-18T08:36:25;84.93;;;35.95;;
28427;SDS011;15662;49.128;8.520;2022-12-18T08:38:53;92.93;;;38.65;;
28427;SDS011;15662;49.128;8.520;2022-12-18T08:41:22;84.15;;;35.60;;
28427;SDS011;15662;49.128;8.520;2022-12-18T08:43:50;105.22;;;37.53;;
28427;SDS011;15662;49.128;8.520;2022-12-18T08:46:38;93.70;;;38.10;;
28427;SDS011;15662;49.128;8.520;2022-12-18T08:49:09;85.47;;;36.10;;
28427;SDS011;15662;49.128;8.520;2022-12-18T08:51:38;85.18;;;35.17;;
28427;SDS011;15662;49.128;8.520;2022-12-18T08:54:06;82.35;;;36.22;;
28427;SDS011;15662;49.128;8.520;2022-12-18T08:56:37;86.53;;;34.83;;
28427;SDS011;15662;49.128;8.520;2022-12-18T08:59:05;162.18;;;38.25;;
28427;SDS011;15662;49.128;8.520;2022-12-18T09:01:33;89.60;;;37.92;;
28427;SDS011;15662;49.128;8.520;2022-12-18T09:04:02;109.65;;;40.65;;
28427;SDS011;15662;49.128;8.520;2022-12-18T09:06:32;100.60;;;39.85;;
28427;SDS011;15662;49.128;8.520;2022-12-18T09:09:00;89.45;;;38.15;;
28427;SDS011;15662;49.128;8.520;2022-12-18T09:11:29;85.50;;;36.17;;
28427;SDS011;15662;49.128;8.520;2022-12-18T09:13:58;89.65;;;37.25;;
28427;SDS011;15662;49.128;8.520;2022-12-18T09:16:28;86.45;;;37.85;;
28427;SDS011;15662;49.128;8.520;2022-12-18T09:18:59;105.10;;;43.85;;
28427;SDS011;15662;49.128;8.520;2022-12-18T09:21:29;94.82;;;39.08;;
28427;SDS011;15662;49.128;8.520;2022-12-18T09:24:03;90.95;;;39.13;;
28427;SDS011;15662;49.128;8.520;2022-12-18T09:26:35;84.13;;;38.05;;
28427;SDS011;15662;49.128;8.520;2022-12-18T09:29:04;85.45;;;37.63;;
28427;SDS011;15662;49.128;8.520;2022-12-18T09:31:34;77.32;;;34.42;;
28427;SDS011;15662;49.128;8.520;2022-12-18T09:34:06;71.57;;;33.22;;
28427;SDS011;15662;49.128;8.520;2022-12-18T09:36:34;74.20;;;33.13;;
28427;SDS011;15662;49.128;8.520;2022-12-18T09:39:02;74.38;;;33.60;;
28427;SDS011;15662;49.128;8.520;2022-12-18T09:41:39;79.38;;;34.13;;
28427;SDS011;15662;49.128;8.520;2022-12-18T09:47:12;69.05;;;29.90;;
28427;SDS011;15662;49.128;8.520;2022-12-18T09:50:21;61.80;;;29.30;;
28427;SDS011;15662;49.128;8.520;2022-12-18T09:53:06;57.60;;;29.73;;
28427;SDS011;15662;49.128;8.520;2022-12-18T09:55:44;57.13;;;28.15;;
28427;SDS011;15662;49.128;8.520;2022-12-18T10:01:10;55.70;;;27.38;;
28427;SDS011;15662;49.128;8.520;2022-12-18T10:03:50;59.38;;;27.83;;
28427;SDS011;15662;49.128;8.520;2022-12-18T10:14:50;54.58;;;27.30;;
28427;SDS011;15662;49.128;8.520;2022-12-18T10:17:40;60.83;;;29.63;;
28427;SDS011;15662;49.128;8.520;2022-12-18T10:23:02;62.65;;;30.75;;
28427;SDS011;15662;49.128;8.520;2022-12-18T10:26:05;61.72;;;29.70;;
28427;SDS011;15662;49.128;8.520;2022-12-18T10:28:36;60.08;;;28.85;;
28427;SDS011;15662;49.128;8.520;2022-12-18T10:31:14;60.67;;;29.55;;
28427;SDS011;15662;49.128;8.520;2022-12-18T10:33:46;63.60;;;30.17;;
28427;SDS011;15662;49.128;8.520;2022-12-18T10:36:14;58.30;;;28.98;;
28427;SDS011;15662;49.128;8.520;2022-12-18T10:38:42;58.33;;;28.70;;
28427;SDS011;15662;49.128;8.520;2022-12-18T10:41:30;61.20;;;30.67;;
28427;SDS011;15662;49.128;8.520;2022-12-18T10:44:10;60.83;;;30.55;;
28427;SDS011;15662;49.128;8.520;2022-12-18T10:46:49;60.92;;;30.20;;
28427;SDS011;15662;49.128;8.520;2022-12-18T10:49:24;55.33;;;28.00;;
28427;SDS011;15662;49.128;8.520;2022-12-18T10:52:14;54.67;;;28.92;;
28427;SDS011;15662;49.128;8.520;2022-12-18T10:54:53;58.13;;;30.40;;
28427;SDS011;15662;49.128;8.520;2022-12-18T10:59:54;59.30;;;30.42;;
28427;SDS011;15662;49.128;8.520;2022-12-18T11:02:33;60.42;;;29.73;;
28427;SDS011;15662;49.128;8.520;2022-12-18T11:05:22;59.40;;;29.60;;
28427;SDS011;15662;49.128;8.520;2022-12-18T11:07:57;54.28;;;27.70;;
28427;SDS011;15662;49.128;8.520;2022-12-18T11:13:11;56.83;;;28.30;;
28427;SDS011;15662;49.128;8.520;2022-12-18T11:15:44;54.70;;;28.00;;
28427;SDS011;15662;49.128;8.520;2022-12-18T11:21:06;56.03;;;28.25;;
28427;SDS011;15662;49.128;8.520;2022-12-18T11:23:44;55.17;;;27.65;;
28427;SDS011;15662;49.128;8.520;2022-12-18T11:26:21;54.70;;;27.15;;
28427;SDS011;15662;49.128;8.520;2022-12-18T11:29:10;58.75;;;29.70;;
28427;SDS011;15662;49.128;8.520;2022-12-18T11:31:46;53.13;;;27.95;;
28427;SDS011;15662;49.128;8.520;2022-12-18T11:34:28;61.65;;;30.38;;
28427;SDS011;15662;49.128;8.520;2022-12-18T11:36:59;56.08;;;28.48;;
28427;SDS011;15662;49.128;8.520;2022-12-18T11:42:14;52.50;;;27.98;;
28427;SDS011;15662;49.128;8.520;2022-12-18T11:44:55;63.20;;;27.27;;
28427;SDS011;15662;49.128;8.520;2022-12-18T11:53:14;57.08;;;27.83;;
28427;SDS011;15662;49.128;8.520;2022-12-18T11:58:48;57.40;;;28.00;;
28427;SDS011;15662;49.128;8.520;2022-12-18T12:15:26;56.35;;;28.30;;
28427;SDS011;15662;49.128;8.520;2022-12-18T12:21:33;56.60;;;29.42;;
28427;SDS011;15662;49.128;8.520;2022-12-18T12:32:49;58.45;;;29.20;;
28427;SDS011;15662;49.128;8.520;2022-12-18T12:38:35;51.40;;;27.48;;
28427;SDS011;15662;49.128;8.520;2022-12-18T12:41:22;52.67;;;27.88;;
28427;SDS011;15662;49.128;8.520;2022-12-18T12:44:14;54.45;;;28.67;;
28427;SDS011;15662;49.128;8.520;2022-12-18T12:47:15;52.67;;;28.75;;
28427;SDS011;15662;49.128;8.520;2022-12-18T12:50:02;52.08;;;28.02;;
28427;SDS011;15662;49.128;8.520;2022-12-18T12:52:41;66.63;;;29.38;;
28427;SDS011;15662;49.128;8.520;2022-12-18T12:55:15;66.43;;;29.60;;
28427;SDS011;15662;49.128;8.520;2022-12-18T13:00:54;54.50;;;29.00;;
28427;SDS011;15662;49.128;8.520;2022-12-18T13:16:04;56.53;;;28.77;;
28427;SDS011;15662;49.128;8.520;2022-12-18T13:18:36;52.00;;;28.67;;
28427;SDS011;15662;49.128;8.520;2022-12-18T13:21:18;57.08;;;29.05;;
28427;SDS011;15662;49.128;8.520;2022-12-18T13:26:54;59.92;;;29.40;;
28427;SDS011;15662;49.128;8.520;2022-12-18T13:32:22;58.90;;;29.38;;
28427;SDS011;15662;49.128;8.520;2022-12-18T13:40:53;55.60;;;30.70;;
28427;SDS011;15662;49.128;8.520;2022-12-18T13:43:24;60.58;;;30.90;;
28427;SDS011;15662;49.128;8.520;2022-12-18T13:48:57;53.88;;;29.02;;
28427;SDS011;15662;49.128;8.520;2022-12-18T13:51:47;57.50;;;28.50;;
28427;SDS011;15662;49.128;8.520;2022-12-18T13:57:27;68.45;;;29.13;;
28427;SDS011;15662;49.128;8.520;2022-12-18T14:03:00;53.42;;;28.25;;
28427;SDS011;15662;49.128;8.520;2022-12-18T14:05:29;56.42;;;29.13;;
28427;SDS011;15662;49.128;8.520;2022-12-18T14:08:05;55.15;;;30.08;;
28427;SDS011;15662;49.128;8.520;2022-12-18T14:10:42;59.58;;;31.20;;
28427;SDS011;15662;49.128;8.520;2022-12-18T14:13:24;53.03;;;29.60;;
28427;SDS011;15662;49.128;8.520;2022-12-18T14:16:04;65.63;;;33.03;;
28427;SDS011;15662;49.128;8.520;2022-12-18T14:18:52;55.92;;;31.13;;
28427;SDS011;15662;49.128;8.520;2022-12-18T14:21:34;62.65;;;31.13;;
28427;SDS011;15662;49.128;8.520;2022-12-18T14:24:06;60.55;;;30.00;;
28427;SDS011;15662;49.128;8.520;2022-12-18T14:26:46;62.15;;;30.85;;
28427;SDS011;15662;49.128;8.520;2022-12-18T14:29:26;68.78;;;32.40;;
28427;SDS011;15662;49.128;8.520;2022-12-18T14:32:04;56.67;;;29.65;;
28427;SDS011;15662;49.128;8.520;2022-12-18T14:34:53;60.22;;;30.35;;
28427;SDS011;15662;49.128;8.520;2022-12-18T14:37:25;54.00;;;29.55;;
28427;SDS011;15662;49.128;8.520;2022-12-18T14:39:58;48.88;;;27.88;;
28427;SDS011;15662;49.128;8.520;2022-12-18T14:42:37;53.45;;;28.40;;
28427;SDS011;15662;49.128;8.520;2022-12-18T14:45:32;51.13;;;27.40;;
28427;SDS011;15662;49.128;8.520;2022-12-18T14:48:19;49.72;;;28.02;;
28427;SDS011;15662;49.128;8.520;2022-12-18T14:51:15;56.28;;;29.10;;
28427;SDS011;15662;49.128;8.520;2022-12-18T14:53:59;58.77;;;29.03;;
28427;SDS011;15662;49.128;8.520;2022-12-18T14:56:31;55.25;;;29.48;;
28427;SDS011;15662;49.128;8.520;2022-12-18T15:04:40;56.58;;;29.35;;
28427;SDS011;15662;49.128;8.520;2022-12-18T15:07:18;55.55;;;28.88;;
28427;SDS011;15662;49.128;8.520;2022-12-18T15:20:41;55.65;;;29.83;;
28427;SDS011;15662;49.128;8.520;2022-12-18T15:26:13;60.55;;;30.10;;
28427;SDS011;15662;49.128;8.520;2022-12-18T15:31:23;55.17;;;26.60;;
28427;SDS011;15662;49.128;8.520;2022-12-18T15:34:14;55.63;;;26.67;;
28427;SDS011;15662;49.128;8.520;2022-12-18T15:36:51;51.45;;;25.40;;
28427;SDS011;15662;49.128;8.520;2022-12-18T15:39:21;36.15;;;17.63;;
28427;SDS011;15662;49.128;8.520;2022-12-18T15:41:51;47.05;;;24.15;;
28427;SDS011;15662;49.128;8.520;2022-12-18T15:44:39;45.78;;;23.75;;
28427;SDS011;15662;49.128;8.520;2022-12-18T15:47:11;46.97;;;23.27;;
28427;SDS011;15662;49.128;8.520;2022-12-18T15:49:41;50.55;;;24.02;;
28427;SDS011;15662;49.128;8.520;2022-12-18T15:52:11;47.95;;;24.67;;
28427;SDS011;15662;49.128;8.520;2022-12-18T15:54:54;48.03;;;24.65;;
28427;SDS011;15662;49.128;8.520;2022-12-18T15:57:41;51.45;;;24.45;;
28427;SDS011;15662;49.128;8.520;2022-12-18T16:00:11;47.85;;;23.10;;
28427;SDS011;15662;49.128;8.520;2022-12-18T16:02:43;49.72;;;24.70;;
28427;SDS011;15662;49.128;8.520;2022-12-18T16:05:13;48.58;;;23.88;;
28427;SDS011;15662;49.128;8.520;2022-12-18T16:07:45;48.38;;;24.30;;
28427;SDS011;15662;49.128;8.520;2022-12-18T16:10:15;44.80;;;23.25;;
28427;SDS011;15662;49.128;8.520;2022-12-18T16:12:47;46.60;;;24.33;;
28427;SDS011;15662;49.128;8.520;2022-12-18T16:15:19;49.53;;;24.88;;
28427;SDS011;15662;49.128;8.520;2022-12-18T16:17:52;49.45;;;25.08;;
28427;SDS011;15662;49.128;8.520;2022-12-18T16:20:22;49.13;;;25.15;;
28427;SDS011;15662;49.128;8.520;2022-12-18T16:22:51;52.45;;;25.92;;
28427;SDS011;15662;49.128;8.520;2022-12-18T16:25:26;46.80;;;25.80;;
28427;SDS011;15662;49.128;8.520;2022-12-18T16:27:56;49.90;;;26.48;;
28427;SDS011;15662;49.128;8.520;2022-12-18T16:30:29;52.90;;;27.33;;
28427;SDS011;15662;49.128;8.520;2022-12-18T16:33:05;48.60;;;25.90;;
28427;SDS011;15662;49.128;8.520;2022-12-18T16:35:37;48.38;;;25.75;;
28427;SDS011;15662;49.128;8.520;2022-12-18T16:38:06;49.38;;;25.30;;
28427;SDS011;15662;49.128;8.520;2022-12-18T16:40:35;46.33;;;24.70;;
28427;SDS011;15662;49.128;8.520;2022-12-18T16:43:25;45.25;;;23.35;;
28427;SDS011;15662;49.128;8.520;2022-12-18T16:45:53;43.17;;;22.40;;
28427;SDS011;15662;49.128;8.520;2022-12-18T16:48:24;46.53;;;22.63;;
28427;SDS011;15662;49.128;8.520;2022-12-18T16:50:59;49.70;;;23.50;;
28427;SDS011;15662;49.128;8.520;2022-12-18T16:53:31;45.20;;;22.92;;
28427;SDS011;15662;49.128;8.520;2022-12-18T16:56:01;49.80;;;24.53;;
28427;SDS011;15662;49.128;8.520;2022-12-18T16:58:31;44.50;;;22.60;;
28427;SDS011;15662;49.128;8.520;2022-12-18T17:01:06;43.25;;;21.83;;
28427;SDS011;15662;49.128;8.520;2022-12-18T17:03:36;46.90;;;23.55;;
28427;SDS011;15662;49.128;8.520;2022-12-18T17:06:05;47.08;;;23.08;;
28427;SDS011;15662;49.128;8.520;2022-12-18T17:08:35;41.67;;;21.98;;
28427;SDS011;15662;49.128;8.520;2022-12-18T17:11:06;53.95;;;25.25;;
28427;SDS011;15662;49.128;8.520;2022-12-18T17:13:36;53.92;;;25.90;;
28427;SDS011;15662;49.128;8.520;2022-12-18T17:16:06;52.15;;;25.92;;
28427;SDS011;15662;49.128;8.520;2022-12-18T17:18:36;64.72;;;29.85;;
28427;SDS011;15662;49.128;8.520;2022-12-18T17:21:04;54.97;;;27.73;;
28427;SDS011;15662;49.128;8.520;2022-12-18T17:23:35;54.78;;;26.98;;
28427;SDS011;15662;49.128;8.520;2022-12-18T17:26:05;54.38;;;27.95;;
28427;SDS011;15662;49.128;8.520;2022-12-18T17:28:35;58.22;;;30.02;;
28427;SDS011;15662;49.128;8.520;2022-12-18T17:33:40;54.20;;;29.98;;
28427;SDS011;15662;49.128;8.520;2022-12-18T17:36:10;54.40;;;29.88;;
28427;SDS011;15662;49.128;8.520;2022-12-18T17:38:38;56.53;;;30.63;;
28427;SDS011;15662;49.128;8.520;2022-12-18T17:41:08;51.13;;;29.38;;
28427;SDS011;15662;49.128;8.520;2022-12-18T17:43:38;56.08;;;30.50;;